Latest Weather Observations for kunanyi / Mount Wellington

IDT60801

Issued at 8:51 pm EST Monday 20 May 2019 (issued every 10 minutes, with the page automatically refreshed every 10 minutes)

About weather observations | Map of weather stations | Latest weather observations for TAS | Other Formats
Station Details ID: 094087 Name: KUNANYI (MOUNT WELLINGTON PINNACLE) Lat: -42.90 Lon: 147.24 Height: 1260.47 m
Data from the previous 72 hours. | See also: Recent months at kunanyi / Mount Wellington
Date/Time
EST
Temp
°C
App
Temp
°C
Dew
Point
°C
Rel
Hum
%
Delta-T
°C
Wind Press
QNH
hPa
Press
MSL
hPa
Rain since
9am
mm
Dir  Spd
km/h
Gust
km/h
Spd
kts
Gust
kts
20/08:30pm 5.8 -2.9 5.8 100 0.0 NW 41 54 22 29 - - 0.6
20/08:00pm 5.8 -3.9 5.8 100 0.0 NW 46 56 25 30 - - 0.6
20/07:30pm 6.2 -3.1 6.1 99 0.0 NW 44 57 24 31 - - 0.6
20/07:00pm 6.0 -3.7 5.7 98 0.1 NW 46 59 25 32 - - 0.6
20/06:30pm 6.1 -4.0 5.7 97 0.2 NW 48 57 26 31 - - 0.6
20/06:00pm 5.8 -4.0 5.5 98 0.1 WNW 46 57 25 31 - - 0.6
20/05:30pm 5.5 -4.0 4.9 96 0.3 NW 44 54 24 29 - - 0.6
20/05:00pm 5.9 -3.0 5.0 94 0.4 NW 41 54 22 29 - - 0.6
20/04:30pm 5.5 -2.2 5.2 98 0.1 NW 35 41 19 22 - - 0.6
20/04:00pm 6.0 -1.4 5.0 93 0.5 NW 33 41 18 22 - - 0.6
20/03:30pm 5.9 -2.0 4.5 91 0.7 NNW 35 46 19 25 - - 0.6
20/03:00pm 6.2 -2.0 5.0 92 0.6 NNW 37 46 20 25 - - 0.6
20/02:30pm 6.3 -2.5 5.4 94 0.4 NW 41 50 22 27 - - 0.4
20/02:00pm 6.2 -1.6 4.7 90 0.7 NW 35 44 19 24 - - 0.0
20/01:30pm 6.9 -1.9 3.7 80 1.5 NW 39 48 21 26 - - 0.0
20/01:00pm 7.4 -1.0 3.5 76 1.8 NW 37 48 20 26 - - 0.0
20/12:30pm 8.3 -0.2 3.4 71 2.3 NW 37 48 20 26 - - 0.0
20/12:00pm 8.0 0.5 3.3 72 2.2 NW 32 41 17 22 - - 0.0
20/11:30am 8.4 1.2 3.1 69 2.4 NNW 30 37 16 20 - - 0.0
20/11:00am 8.1 1.7 3.4 72 2.2 WNW 26 33 14 18 - - 0.0
20/10:30am 9.2 6.1 3.4 67 2.7 N 9 13 5 7 - - 0.0
20/10:00am 9.7 6.9 3.2 64 3.0 N 7 11 4 6 - - 0.0
20/09:30am 8.4 5.8 3.3 70 2.4 W 6 7 3 4 - - 0.0
20/09:00am 7.9 4.0 3.2 72 2.2 W 13 15 7 8 - - 0.2
20/08:30am 7.4 3.8 2.7 72 2.1 WSW 11 17 6 9 - - 0.2
20/08:00am 6.5 2.1 2.8 77 1.7 WSW 15 20 8 11 - - 0.2
20/07:30am 6.5 1.7 2.8 77 1.7 WSW 17 22 9 12 - - 0.2
20/07:00am 7.2 2.9 3.1 75 1.9 SW 15 19 8 10 - - 0.2
20/06:30am 6.8 1.1 2.9 76 1.8 WSW 22 28 12 15 - - 0.2
20/06:00am 6.8 0.3 2.7 75 1.8 WSW 26 30 14 16 - - 0.2
20/05:30am 7.2 0.2 2.1 70 2.3 WSW 28 33 15 18 - - 0.2
20/05:00am 6.3 -0.2 -2.8 52 3.6 SW 22 28 12 15 - - 0.2
20/04:30am 7.0 -1.5 -3.5 47 4.1 WSW 32 37 17 20 - - 0.2
20/04:00am 7.2 -2.2 -14.2 20 6.4 WSW 32 39 17 21 - - 0.2
20/03:30am 6.8 -0.8 -16.5 17 6.6 WSW 22 30 12 16 - - 0.2
20/03:00am 8.0 1.9 -20.6 11 7.5 WNW 13 22 7 12 - - 0.2
20/02:30am 8.0 0.0 -17.0 15 7.1 WNW 24 28 13 15 - - 0.2
20/02:00am 9.0 -0.4 -23.5 8 8.1 NW 30 33 16 18 - - 0.2
20/01:30am 7.6 -1.0 -7.6 33 5.4 NW 30 33 16 18 - - 0.2
20/01:00am 7.7 1.2 -5.7 38 5.0 NNW 20 26 11 14 - - 0.2
20/12:30am 7.3 0.4 -5.7 39 4.8 NNW 22 26 12 14 - - 0.2
20/12:00am 7.3 0.9 -5.1 41 4.6 NNW 20 24 11 13 - - 0.2
 
Date/Time
EST
Temp
°C
App
Temp
°C
Dew
Point
°C
Rel
Hum
%
Delta-T
°C
Wind Press
QNH
hPa
Press
MSL
hPa
Rain since
9am
mm
Dir  Spd
km/h
Gust
km/h
Spd
kts
Gust
kts
19/11:30pm 7.4 1.1 -4.3 43 4.5 NW 20 24 11 13 - - 0.2
19/11:00pm 7.2 1.0 -4.5 43 4.4 NNW 19 22 10 12 - - 0.2
19/10:30pm 7.1 0.9 -5.2 41 4.6 NNW 19 20 10 11 - - 0.2
19/10:00pm 7.3 0.9 -5.1 41 4.6 NNW 20 22 11 12 - - 0.2
19/09:30pm 6.9 0.9 -6.4 38 4.8 NNW 17 22 9 12 - - 0.2
19/09:00pm 7.4 1.5 -6.0 38 4.9 NNW 17 19 9 10 - - 0.2
19/08:30pm 7.4 1.2 -8.6 31 5.5 NNW 17 17 9 9 - - 0.2
19/08:00pm 7.8 2.3 -9.1 29 5.8 NNW 13 15 7 8 - - 0.2
19/07:30pm 6.7 1.5 -5.9 40 4.6 NW 13 15 7 8 - - 0.2
19/07:00pm 6.8 2.0 -2.6 51 3.7 NW 13 13 7 7 - - 0.2
19/06:30pm 7.8 4.0 -0.7 55 3.6 NW 9 13 5 7 - - 0.2
19/06:00pm 7.4 3.4 -2.1 51 3.8 WNW 9 13 5 7 - - 0.2
19/05:30pm 7.3 2.6 -1.6 53 3.6 WNW 13 13 7 7 - - 0.2
19/05:00pm 7.6 3.4 -1.1 54 3.6 WNW 11 13 6 7 - - 0.2
19/04:30pm 7.8 3.7 0.1 58 3.3 W 11 13 6 7 - - 0.2
19/04:00pm 10.7 6.9 -0.7 45 4.9 WNW 9 13 5 7 - - 0.2
19/03:30pm 10.5 7.6 1.6 54 4.0 NW 6 9 3 5 - - 0.2
19/03:00pm 9.8 5.2 -1.0 47 4.6 WNW 13 15 7 8 - - 0.2
19/02:30pm 10.6 6.0 -3.8 36 5.8 NW 11 15 6 8 - - 0.2
19/02:00pm 10.5 6.1 -2.5 40 5.4 NW 11 13 6 7 - - 0.2
19/01:30pm 12.5 8.0 -3.3 33 6.5 WNW 11 15 6 8 - - 0.2
19/01:00pm 12.7 8.4 -4.4 30 6.9 NW 9 20 5 11 - - 0.2
19/12:30pm 12.0 7.6 -5.5 29 6.9 WNW 9 13 5 7 - - 0.2
19/12:00pm 11.7 6.8 -7.1 26 7.1 WNW 11 15 6 8 - - 0.2
19/11:30am 10.5 6.4 -2.8 39 5.5 SW 9 13 5 7 - - 0.2
19/11:00am 10.9 5.8 -5.5 31 6.3 WSW 13 15 7 8 - - 0.0
19/10:30am 11.5 6.8 -9.4 22 7.5 W 9 15 5 8 - - 0.0
19/10:00am 10.2 4.8 -8.4 26 6.7 WSW 13 15 7 8 - - 0.0
19/09:30am 9.5 3.7 -8.1 28 6.3 WSW 15 17 8 9 - - 0.0
19/09:00am 8.5 2.3 -9.4 27 6.1 WSW 17 20 9 11 - - 0.0
19/08:30am 7.1 1.2 -5.6 40 4.7 WSW 17 20 9 11 - - 0.0
19/08:00am 6.9 1.1 -9.0 31 5.4 W 15 19 8 10 - - 0.0
19/07:30am 6.3 0.9 -8.4 34 5.0 WSW 13 17 7 9 - - 0.0
19/07:00am 6.7 1.3 -8.4 33 5.2 W 13 17 7 9 - - 0.0
19/06:30am 5.8 0.3 -5.2 45 4.0 W 15 17 8 9 - - 0.0
19/06:00am 6.0 0.4 -2.8 53 3.4 W 17 22 9 12 - - 0.0
19/05:30am 6.8 0.3 -2.1 53 3.6 WNW 22 30 12 16 - - 0.0
19/05:00am 5.1 -0.9 -3.2 55 3.2 WNW 19 22 10 12 - - 0.0
19/04:30am 4.8 0.3 -3.0 57 3.0 WNW 11 15 6 8 - - 0.0
19/04:00am 4.4 -1.1 -2.2 62 2.6 WNW 17 20 9 11 - - 0.0
19/03:30am 5.1 -0.2 -7.4 40 4.3 NW 13 15 7 8 - - 0.0
19/03:00am 4.2 -0.6 -2.6 61 2.6 WNW 13 15 7 8 - - 0.0
19/02:30am 5.3 1.7 -7.8 38 4.5 WNW 4 6 2 3 - - 0.0
19/02:00am 5.1 0.8 -8.4 37 4.5 WSW 7 9 4 5 - - 0.0
19/01:30am 4.5 0.8 -2.6 60 2.7 SW 7 11 4 6 - - 0.0
19/01:00am 3.1 -1.6 -1.6 71 1.8 WSW 13 13 7 7 - - 0.0
19/12:30am 3.2 -0.5 0.1 80 1.3 W 9 13 5 7 - - 0.0
19/12:00am 2.9 -0.6 1.0 87 0.8 W 9 13 5 7 - - 0.0
 
Date/Time
EST
Temp
°C
App
Temp
°C
Dew
Point
°C
Rel
Hum
%
Delta-T
°C
Wind Press
QNH
hPa
Press
MSL
hPa
Rain since
9am
mm
Dir  Spd
km/h
Gust
km/h
Spd
kts
Gust
kts
18/11:30pm 2.9 -1.1 2.6 98 0.1 WNW 13 17 7 9 - - 0.0
18/11:00pm 3.2 -1.2 2.9 98 0.1 W 15 20 8 11 - - 0.0
18/10:30pm 3.4 -0.9 3.0 97 0.2 WNW 15 20 8 11 - - 0.0
18/10:00pm 3.2 -1.6 2.5 95 0.3 W 17 20 9 11 - - 0.0
18/09:30pm 3.3 -1.6 2.0 91 0.6 WNW 17 19 9 10 - - 0.0
18/09:00pm 3.8 -0.4 1.8 87 0.9 WNW 13 17 7 9 - - 0.0
18/08:30pm 3.8 0.6 2.9 94 0.4 WNW 9 13 5 7 - - 0.0
18/08:00pm 4.1 1.6 1.6 84 1.1 NW 4 9 2 5 - - 0.0
18/07:30pm 3.9 2.0 2.9 93 0.4 SSE 2 6 1 3 - - 0.0
18/07:00pm 3.9 -0.7 3.6 98 0.1 SSW 17 20 9 11 - - 0.0
18/06:30pm 3.6 -1.1 3.2 97 0.2 SW 17 22 9 12 - - 0.0
18/06:00pm 4.3 1.3 4.0 98 0.1 SSE 9 13 5 7 - - 0.0
18/05:30pm 4.3 0.9 3.9 97 0.2 WSW 11 17 6 9 - - 0.0
18/05:00pm 4.8 2.4 4.2 96 0.3 SSW 6 9 3 5 - - 0.0
18/04:30pm 4.9 1.1 3.7 92 0.5 WSW 13 17 7 9 - - 0.0
18/04:00pm 6.6 3.0 4.8 88 0.8 W 13 17 7 9 - - 0.0
18/03:30pm 6.0 1.8 4.0 87 0.9 W 15 20 8 11 - - 0.0
18/03:00pm 6.3 1.9 4.5 88 0.8 WSW 17 22 9 12 - - 0.0
18/02:30pm 6.0 1.0 4.5 90 0.7 WSW 20 28 11 15 - - 0.0
18/02:00pm 6.3 3.0 4.8 90 0.7 W 11 17 6 9 - - 0.0
18/01:30pm 6.8 3.1 4.6 86 1.0 W 13 19 7 10 - - 0.0
18/01:00pm 7.0 4.4 4.1 82 1.4 W 7 15 4 8 - - 0.0
18/12:30pm 6.9 1.9 3.7 80 1.5 W 19 30 10 16 - - 0.0
18/12:00pm 7.3 3.1 3.9 79 1.6 WSW 15 24 8 13 - - 0.0
18/11:30am 7.2 0.8 3.4 77 1.7 W 26 37 14 20 - - 0.0
18/11:00am 7.0 -0.5 3.4 78 1.6 WSW 32 46 17 25 - - 0.0
18/10:30am 6.1 -2.8 3.1 81 1.4 WSW 39 57 21 31 - - 0.0
18/10:22am 6.0 -3.0 2.6 79 1.5 WSW 39 57 21 31 - - 0.0
18/10:00am 5.8 -3.9 2.6 80 1.4 WSW 43 56 23 30 - - 0.0
18/09:48am 5.8 -3.6 2.6 80 1.4 WSW 41 59 22 32 - - 0.0
18/09:30am 5.3 -4.0 2.7 83 1.2 WSW 41 54 22 29 - - 0.0
18/09:00am 4.8 -6.3 2.3 84 1.1 WSW 50 59 27 32 - - 0.0
18/08:30am 4.3 -4.7 2.2 86 0.9 WSW 39 61 21 33 - - 0.0
18/08:27am 4.2 -5.6 2.2 87 0.9 WSW 43 61 23 33 - - 0.0
18/08:00am 3.6 -6.4 2.4 92 0.5 WSW 44 57 24 31 - - 0.0
18/07:30am 3.4 -4.9 2.2 92 0.5 W 35 48 19 26 - - 0.0
18/07:00am 3.8 -5.8 1.4 84 1.0 W 41 54 22 29 - - 0.0
18/06:30am 4.0 -7.3 0.9 80 1.3 WSW 50 63 27 34 - - 0.0
18/06:00am 4.1 -7.2 1.0 80 1.3 WSW 50 59 27 32 - - 0.0
18/05:30am 4.3 -8.1 1.3 81 1.3 WSW 56 65 30 35 - - 0.0
18/05:00am 4.3 -9.4 1.7 83 1.1 WSW 63 80 34 43 - - 0.0
18/04:30am 4.5 -8.1 1.5 81 1.3 WSW 57 74 31 40 - - 0.0
18/04:06am 4.4 -5.7 1.4 81 1.3 WSW 44 65 24 35 - - 0.0
18/04:00am 4.9 -5.7 0.9 75 1.7 WSW 46 65 25 35 - - 0.0
18/03:32am 4.5 -6.0 1.5 81 1.3 WSW 46 67 25 36 - - 0.0
18/03:30am 4.7 -6.2 1.4 79 1.4 WSW 48 59 26 32 - - 0.0
18/03:00am 4.2 -7.7 2.2 87 0.9 WSW 54 76 29 41 - - 0.0
18/02:30am 4.1 -9.0 2.8 91 0.6 WSW 61 82 33 44 - - 0.0
18/02:26am 4.2 -9.3 2.7 90 0.7 WSW 63 82 34 44 - - 0.0
18/02:00am 4.3 -9.5 3.1 92 0.5 WSW 65 78 35 42 - - 0.0
18/01:30am 4.4 -9.8 3.1 91 0.6 WSW 67 78 36 42 - - 0.0
18/01:02am 4.7 -7.7 2.7 87 0.9 WSW 57 80 31 43 - - 0.0
18/01:00am 4.7 -7.5 2.7 87 0.9 WSW 56 69 30 37 - - 0.0
18/12:30am 5.7 -6.3 1.6 75 1.8 W 54 76 29 41 - - 0.0
18/12:08am 5.9 -6.5 1.4 73 1.9 WSW 56 74 30 40 - - 0.0
18/12:00am 5.6 -6.9 2.1 78 1.5 WSW 57 72 31 39 - - 0.0
 
Date/Time
EST
Temp
°C
App
Temp
°C
Dew
Point
°C
Rel
Hum
%
Delta-T
°C
Wind Press
QNH
hPa
Press
MSL
hPa
Rain since
9am
mm
Dir  Spd
km/h
Gust
km/h
Spd
kts
Gust
kts
17/11:43pm 5.4 -7.0 2.6 82 1.2 WSW 57 76 31 41 - - 0.0
17/11:30pm 4.9 -7.4 3.1 88 0.8 WSW 57 69 31 37 - - 0.0
17/11:00pm 5.1 -8.1 2.6 84 1.1 WSW 61 76 33 41 - - 0.0
17/10:44pm 4.6 -7.5 3.1 90 0.7 WSW 56 76 30 41 - - 0.0
17/10:30pm 4.8 -8.0 2.5 85 1.0 WSW 59 76 32 41 - - 0.0
17/10:10pm 4.8 -7.4 2.5 85 1.0 WSW 56 74 30 40 - - 0.0
17/10:00pm 5.2 -7.3 2.0 80 1.4 WSW 57 70 31 38 - - 0.0
17/09:30pm 5.2 -7.7 1.9 79 1.4 WSW 59 72 32 39 - - 0.0
17/09:00pm 4.8 -7.6 2.7 86 0.9 WSW 57 69 31 37 - - 0.0

Other formats

Comma delimited format used in spreadsheet applications
http://www.bom.gov.au/fwo/IDT60801/IDT60801.95979.axf

JavaScript Object Notation format (JSON) in row-major order
http://www.bom.gov.au/fwo/IDT60801/IDT60801.95979.json

Data quality

Most of these data are generated automatically and are frequently updated. Quality checks on data are not normally performed. It is possible for incorrect values to appear. Refer to information at About Latest Weather Observations and please check the disclaimer before using these data.